EZY89Y EDDH-EKCH
Flight info
| Callsign | EZY89Y |
|---|---|
| Flight time | 0h 34m |
| Altitude | 23000 |
| Route | LUGEG3G/33 LUGEG P605 GESKA/N0373F220 Z711 MONAK |
| Aircraft | A20N/M-SDE2E3FGHIRWXY/LB1 |
Departure
| Time | 2026-04-26 19:37 |
|---|---|
| Airport | Hamburg Helmut Schmidt Airport (EDDH) |
Arrival
| Time | 2026-04-26 20:11 |
|---|---|
| Airport | Copenhagen Kastrup Airport (EKCH) |
| Time | Latitude | Longitude | Altitude | Speed | Heading |
|---|---|---|---|---|---|
| 2026-04-26 19:04 | 53.63283 | 10.00376 | 50 ft | 0 kts | 85° |
| 2026-04-26 19:24 | 53.63282 | 10.00341 | 50 ft | 2 kts | 85° |
| 2026-04-26 19:25 | 53.63280 | 10.00314 | 50 ft | 2 kts | 85° |
| 2026-04-26 19:25 | 53.63280 | 10.00305 | 50 ft | 2 kts | 85° |
| 2026-04-26 19:25 | 53.63278 | 10.00260 | 50 ft | 2 kts | 88° |
| 2026-04-26 19:25 | 53.63278 | 10.00232 | 50 ft | 2 kts | 88° |
| 2026-04-26 19:26 | 53.63277 | 10.00205 | 50 ft | 2 kts | 102° |
| 2026-04-26 19:26 | 53.63284 | 10.00180 | 48 ft | 2 kts | 143° |
| 2026-04-26 19:26 | 53.63296 | 10.00169 | 44 ft | 0 kts | 169° |
| 2026-04-26 19:26 | 53.63302 | 10.00168 | 45 ft | 0 kts | 174° |
| 2026-04-26 19:31 | 53.63301 | 10.00168 | 45 ft | 0 kts | 175° |
| 2026-04-26 19:32 | 53.63300 | 10.00168 | 45 ft | 1 kts | 175° |
| 2026-04-26 19:33 | 53.63237 | 10.00177 | 46 ft | 16 kts | 176° |
| 2026-04-26 19:33 | 53.63137 | 10.00188 | 48 ft | 18 kts | 176° |
| 2026-04-26 19:33 | 53.63057 | 10.00170 | 47 ft | 9 kts | 207° |
| 2026-04-26 19:33 | 53.63017 | 10.00128 | 46 ft | 5 kts | 212° |
| 2026-04-26 19:34 | 53.62997 | 10.00106 | 45 ft | 2 kts | 212° |
| 2026-04-26 19:34 | 53.62982 | 10.00090 | 42 ft | 5 kts | 213° |
| 2026-04-26 19:34 | 53.62961 | 10.00067 | 46 ft | 4 kts | 213° |
| 2026-04-26 19:34 | 53.62922 | 9.99995 | 45 ft | 9 kts | 240° |
| 2026-04-26 19:35 | 53.62897 | 9.99912 | 46 ft | 11 kts | 243° |
| 2026-04-26 19:35 | 53.62865 | 9.99795 | 43 ft | 8 kts | 261° |
| 2026-04-26 19:35 | 53.62880 | 9.99735 | 46 ft | 4 kts | 315° |
| 2026-04-26 19:35 | 53.62899 | 9.99716 | 47 ft | 0 kts | 333° |
| 2026-04-26 19:36 | 53.63228 | 9.99430 | 47 ft | 99 kts | 333° |
| 2026-04-26 19:36 | 53.64093 | 9.98683 | 70 ft | 178 kts | 333° |
| 2026-04-26 19:37 | 53.65322 | 9.97671 | 698 ft | 209 kts | 335° |
| 2026-04-26 19:37 | 53.66510 | 9.96768 | 1367 ft | 160 kts | 330° |
| 2026-04-26 19:37 | 53.67397 | 9.95867 | 1370 ft | 140 kts | 327° |
| 2026-04-26 19:37 | 53.68217 | 9.95037 | 1347 ft | 139 kts | 336° |
| 2026-04-26 19:38 | 53.69209 | 9.94669 | 1375 ft | 158 kts | 354° |
| 2026-04-26 19:38 | 53.70255 | 9.94581 | 1735 ft | 160 kts | 358° |
| 2026-04-26 19:38 | 53.71407 | 9.94580 | 2293 ft | 174 kts | 360° |
| 2026-04-26 19:38 | 53.72667 | 9.94759 | 2831 ft | 184 kts | 20° |
| 2026-04-26 19:39 | 53.73652 | 9.96221 | 3353 ft | 199 kts | 54° |
| 2026-04-26 19:39 | 53.74401 | 9.98148 | 3792 ft | 197 kts | 59° |
| 2026-04-26 19:39 | 53.75076 | 10.00159 | 4130 ft | 197 kts | 62° |
| 2026-04-26 19:39 | 53.75709 | 10.02205 | 4414 ft | 197 kts | 63° |
| 2026-04-26 19:40 | 53.76319 | 10.04283 | 4691 ft | 198 kts | 64° |
| 2026-04-26 19:40 | 53.76928 | 10.06410 | 4973 ft | 198 kts | 64° |
| 2026-04-26 19:40 | 53.77523 | 10.08513 | 5240 ft | 199 kts | 64° |
| 2026-04-26 19:40 | 53.78123 | 10.10633 | 5418 ft | 198 kts | 64° |
| 2026-04-26 19:41 | 53.78722 | 10.12747 | 5684 ft | 201 kts | 64° |
| 2026-04-26 19:41 | 53.79332 | 10.14892 | 5970 ft | 212 kts | 64° |
| 2026-04-26 19:41 | 53.80044 | 10.17383 | 6334 ft | 245 kts | 64° |
| 2026-04-26 19:41 | 53.80563 | 10.19195 | 6515 ft | 275 kts | 64° |
| 2026-04-26 19:42 | 53.81702 | 10.23167 | 7316 ft | 276 kts | 64° |
| 2026-04-26 19:42 | 53.82536 | 10.26080 | 7940 ft | 282 kts | 64° |
| 2026-04-26 19:42 | 53.83405 | 10.29119 | 8573 ft | 283 kts | 64° |
| 2026-04-26 19:42 | 53.84254 | 10.32091 | 9202 ft | 286 kts | 64° |
| 2026-04-26 19:43 | 53.85124 | 10.35143 | 9834 ft | 289 kts | 64° |
| 2026-04-26 19:43 | 53.86003 | 10.38227 | 10463 ft | 292 kts | 64° |
| 2026-04-26 19:43 | 53.86888 | 10.41342 | 11094 ft | 294 kts | 64° |
| 2026-04-26 19:43 | 53.87779 | 10.44478 | 11717 ft | 297 kts | 64° |
| 2026-04-26 19:44 | 53.88680 | 10.47657 | 12354 ft | 300 kts | 64° |
| 2026-04-26 19:44 | 53.89587 | 10.50858 | 12982 ft | 303 kts | 64° |
| 2026-04-26 19:44 | 53.90506 | 10.54107 | 13615 ft | 305 kts | 64° |
| 2026-04-26 19:44 | 53.91426 | 10.57361 | 14241 ft | 308 kts | 64° |
| 2026-04-26 19:45 | 53.92370 | 10.60648 | 14860 ft | 311 kts | 59° |
| 2026-04-26 19:45 | 53.93737 | 10.63503 | 15511 ft | 314 kts | 45° |
| 2026-04-26 19:45 | 53.95343 | 10.66063 | 16140 ft | 323 kts | 41° |
| 2026-04-26 19:45 | 53.97109 | 10.68595 | 16770 ft | 340 kts | 39° |
| 2026-04-26 19:46 | 53.99012 | 10.71133 | 17402 ft | 356 kts | 37° |
| 2026-04-26 19:46 | 54.00891 | 10.73991 | 18027 ft | 370 kts | 45° |
| 2026-04-26 19:46 | 54.02670 | 10.77257 | 18657 ft | 384 kts | 48° |
| 2026-04-26 19:46 | 54.04465 | 10.80721 | 19283 ft | 396 kts | 49° |
| 2026-04-26 19:47 | 54.06284 | 10.84287 | 19905 ft | 401 kts | 49° |
| 2026-04-26 19:47 | 54.07498 | 10.86681 | 20320 ft | 406 kts | 49° |
| 2026-04-26 19:47 | 54.10015 | 10.91639 | 21152 ft | 419 kts | 49° |
| 2026-04-26 19:47 | 54.11943 | 10.95427 | 21780 ft | 427 kts | 49° |
| 2026-04-26 19:48 | 54.13915 | 10.99286 | 22397 ft | 435 kts | 49° |
| 2026-04-26 19:48 | 54.15940 | 11.03240 | 22736 ft | 449 kts | 49° |
| 2026-04-26 19:48 | 54.18043 | 11.07336 | 22883 ft | 467 kts | 49° |
| 2026-04-26 19:48 | 54.20210 | 11.11550 | 22944 ft | 474 kts | 49° |
| 2026-04-26 19:49 | 54.22384 | 11.15775 | 22967 ft | 472 kts | 49° |
| 2026-04-26 19:49 | 54.24552 | 11.19987 | 22979 ft | 472 kts | 49° |
| 2026-04-26 19:49 | 54.26721 | 11.24206 | 22986 ft | 472 kts | 49° |
| 2026-04-26 19:49 | 54.28892 | 11.28431 | 22989 ft | 473 kts | 49° |
| 2026-04-26 19:50 | 54.31062 | 11.32661 | 22989 ft | 472 kts | 49° |
| 2026-04-26 19:50 | 54.33226 | 11.36883 | 22990 ft | 472 kts | 49° |
| 2026-04-26 19:50 | 54.35395 | 11.41120 | 22992 ft | 472 kts | 49° |
| 2026-04-26 19:50 | 54.37534 | 11.45305 | 22993 ft | 473 kts | 49° |
| 2026-04-26 19:51 | 54.39699 | 11.49547 | 22992 ft | 472 kts | 49° |
| 2026-04-26 19:51 | 54.41889 | 11.53846 | 22992 ft | 472 kts | 49° |
| 2026-04-26 19:51 | 54.44048 | 11.58092 | 22994 ft | 472 kts | 49° |
| 2026-04-26 19:51 | 54.46180 | 11.62291 | 22995 ft | 472 kts | 49° |
| 2026-04-26 19:52 | 54.48341 | 11.66556 | 22995 ft | 473 kts | 49° |
| 2026-04-26 19:52 | 54.50498 | 11.70819 | 22994 ft | 472 kts | 49° |
| 2026-04-26 19:52 | 54.52650 | 11.75082 | 22994 ft | 472 kts | 49° |
| 2026-04-26 19:52 | 54.54822 | 11.79392 | 22996 ft | 472 kts | 49° |
| 2026-04-26 19:53 | 54.56948 | 11.83622 | 22997 ft | 472 kts | 49° |
| 2026-04-26 19:53 | 54.59129 | 11.87973 | 22996 ft | 473 kts | 49° |
| 2026-04-26 19:53 | 54.61242 | 11.92205 | 22996 ft | 472 kts | 49° |
| 2026-04-26 19:53 | 54.63248 | 11.96676 | 22994 ft | 472 kts | 59° |
| 2026-04-26 19:54 | 54.64938 | 12.01539 | 22992 ft | 472 kts | 52° |
| 2026-04-26 19:54 | 54.67322 | 12.05429 | 22999 ft | 472 kts | 38° |
| 2026-04-26 19:54 | 54.69978 | 12.08778 | 22995 ft | 472 kts | 34° |
| 2026-04-26 19:54 | 54.72945 | 12.11299 | 22998 ft | 471 kts | 15° |
| 2026-04-26 19:55 | 54.76142 | 12.12039 | 23000 ft | 470 kts | 2° |
| 2026-04-26 19:55 | 54.79422 | 12.12186 | 22998 ft | 471 kts | 0° |
| 2026-04-26 19:55 | 54.82699 | 12.12223 | 22997 ft | 471 kts | 360° |
| 2026-04-26 19:55 | 54.85972 | 12.12257 | 22997 ft | 470 kts | 0° |
| 2026-04-26 19:56 | 54.89246 | 12.12334 | 22968 ft | 470 kts | 1° |
| 2026-04-26 19:56 | 54.92476 | 12.12479 | 22925 ft | 457 kts | 1° |
| 2026-04-26 19:56 | 54.95552 | 12.13164 | 22355 ft | 441 kts | 16° |
| 2026-04-26 19:56 | 54.98265 | 12.15521 | 21166 ft | 435 kts | 37° |
| 2026-04-26 19:57 | 55.00249 | 12.19410 | 20220 ft | 426 kts | 60° |
| 2026-04-26 19:57 | 55.01192 | 12.24146 | 19687 ft | 407 kts | 83° |
| 2026-04-26 19:57 | 55.01164 | 12.28947 | 19232 ft | 388 kts | 96° |
| 2026-04-26 19:57 | 55.00970 | 12.33526 | 18800 ft | 372 kts | 84° |
| 2026-04-26 19:58 | 55.01726 | 12.37691 | 18408 ft | 356 kts | 57° |
| 2026-04-26 19:58 | 55.03347 | 12.40812 | 18049 ft | 342 kts | 40° |
| 2026-04-26 19:58 | 55.05218 | 12.43243 | 17687 ft | 329 kts | 33° |
| 2026-04-26 19:58 | 55.07157 | 12.45366 | 17057 ft | 326 kts | 31° |
| 2026-04-26 19:59 | 55.09075 | 12.47352 | 16342 ft | 316 kts | 30° |
| 2026-04-26 19:59 | 55.10952 | 12.49250 | 15621 ft | 308 kts | 30° |
| 2026-04-26 19:59 | 55.12795 | 12.51097 | 14897 ft | 300 kts | 29° |
| 2026-04-26 19:59 | 55.14538 | 12.52837 | 14176 ft | 279 kts | 29° |
| 2026-04-26 20:00 | 55.16177 | 12.54472 | 13452 ft | 265 kts | 29° |
| 2026-04-26 20:00 | 55.17744 | 12.56038 | 12731 ft | 252 kts | 29° |
| 2026-04-26 20:00 | 55.19214 | 12.57508 | 11911 ft | 239 kts | 29° |
| 2026-04-26 20:00 | 55.20600 | 12.58896 | 11017 ft | 216 kts | 29° |
| 2026-04-26 20:01 | 55.21840 | 12.60142 | 10412 ft | 187 kts | 29° |
| 2026-04-26 20:01 | 55.22857 | 12.61168 | 10220 ft | 156 kts | 29° |
| 2026-04-26 20:01 | 55.23793 | 12.62106 | 9687 ft | 154 kts | 28° |
| 2026-04-26 20:01 | 55.24734 | 12.62940 | 9236 ft | 145 kts | 12° |
| 2026-04-26 20:02 | 55.25642 | 12.62569 | 8553 ft | 146 kts | 307° |
| 2026-04-26 20:02 | 55.26124 | 12.61028 | 8157 ft | 132 kts | 297° |
| 2026-04-26 20:02 | 55.26600 | 12.59632 | 7917 ft | 145 kts | 305° |
| 2026-04-26 20:02 | 55.26805 | 12.59160 | 7940 ft | 153 kts | 308° |
| 2026-04-26 20:03 | 55.28244 | 12.56669 | 7824 ft | 183 kts | 318° |
| 2026-04-26 20:03 | 55.29218 | 12.55256 | 7146 ft | 176 kts | 321° |
| 2026-04-26 20:03 | 55.30190 | 12.53927 | 6349 ft | 175 kts | 322° |
| 2026-04-26 20:03 | 55.31148 | 12.52660 | 5561 ft | 172 kts | 322° |
| 2026-04-26 20:04 | 55.32108 | 12.51406 | 4819 ft | 169 kts | 322° |
| 2026-04-26 20:04 | 55.33034 | 12.50200 | 4710 ft | 185 kts | 322° |
| 2026-04-26 20:04 | 55.34104 | 12.48798 | 4674 ft | 193 kts | 322° |
| 2026-04-26 20:04 | 55.35153 | 12.47416 | 4626 ft | 182 kts | 322° |
| 2026-04-26 20:05 | 55.36132 | 12.46120 | 4273 ft | 171 kts | 322° |
| 2026-04-26 20:05 | 55.37067 | 12.44876 | 3652 ft | 171 kts | 322° |
| 2026-04-26 20:05 | 55.38005 | 12.43626 | 3314 ft | 167 kts | 322° |
| 2026-04-26 20:05 | 55.38920 | 12.42404 | 3140 ft | 165 kts | 322° |
| 2026-04-26 20:06 | 55.39837 | 12.41177 | 3063 ft | 165 kts | 322° |
| 2026-04-26 20:06 | 55.40753 | 12.39951 | 3029 ft | 166 kts | 322° |
| 2026-04-26 20:06 | 55.41705 | 12.38801 | 2934 ft | 169 kts | 338° |
| 2026-04-26 20:06 | 55.42837 | 12.38914 | 2769 ft | 167 kts | 24° |
| 2026-04-26 20:07 | 55.43920 | 12.39867 | 2589 ft | 189 kts | 27° |
| 2026-04-26 20:07 | 55.45059 | 12.41005 | 2419 ft | 186 kts | 30° |
| 2026-04-26 20:07 | 55.46164 | 12.42217 | 2245 ft | 187 kts | 32° |
| 2026-04-26 20:07 | 55.47245 | 12.43482 | 2111 ft | 185 kts | 34° |
| 2026-04-26 20:08 | 55.47949 | 12.44334 | 2065 ft | 185 kts | 34° |
| 2026-04-26 20:08 | 55.49010 | 12.45644 | 2029 ft | 186 kts | 35° |
| 2026-04-26 20:08 | 55.50025 | 12.46918 | 2010 ft | 175 kts | 35° |
| 2026-04-26 20:08 | 55.51020 | 12.48188 | 2006 ft | 177 kts | 36° |
| 2026-04-26 20:09 | 55.51977 | 12.49425 | 1920 ft | 167 kts | 36° |
| 2026-04-26 20:09 | 55.52898 | 12.50678 | 1676 ft | 165 kts | 38° |
| 2026-04-26 20:09 | 55.53779 | 12.51980 | 1443 ft | 165 kts | 40° |
| 2026-04-26 20:09 | 55.54645 | 12.53303 | 1223 ft | 164 kts | 40° |
| 2026-04-26 20:10 | 55.55502 | 12.54625 | 1000 ft | 164 kts | 41° |
| 2026-04-26 20:10 | 55.56358 | 12.55948 | 780 ft | 163 kts | 40° |
| 2026-04-26 20:10 | 55.57213 | 12.57253 | 572 ft | 162 kts | 40° |
| 2026-04-26 20:10 | 55.58078 | 12.58583 | 383 ft | 175 kts | 40° |
| 2026-04-26 20:11 | 55.58934 | 12.59912 | 146 ft | 153 kts | 41° |
| 2026-04-26 20:11 | 55.59655 | 12.61023 | 19 ft | 115 kts | 40° |
| 2026-04-26 20:11 | 55.60015 | 12.61575 | 22 ft | 7 kts | 41° |